createdAt,value
2017-11-19T00:00:39.943Z,87.40
2017-11-19T00:03:06.215Z,90.00
2017-11-19T00:05:33.135Z,88.00
2017-11-19T00:07:59.721Z,84.10
2017-11-19T00:10:27.364Z,87.20
2017-11-19T00:12:54.499Z,81.90
2017-11-19T00:15:20.744Z,82.40
2017-11-19T00:17:46.960Z,82.30
2017-11-19T00:20:13.973Z,82.30
2017-11-19T00:22:41.643Z,83.00
2017-11-19T00:25:09.358Z,84.80
2017-11-19T00:27:37.014Z,83.50
2017-11-19T00:30:03.729Z,82.90
2017-11-19T00:32:30.353Z,83.40
2017-11-19T00:34:56.583Z,84.80
2017-11-19T00:37:24.601Z,84.90
2017-11-19T00:39:50.860Z,84.70
2017-11-19T00:42:18.064Z,85.00
2017-11-19T00:44:46.120Z,85.90
2017-11-19T00:47:14.049Z,85.60
2017-11-19T00:49:40.275Z,85.50
2017-11-19T00:52:16.202Z,85.40
2017-11-19T00:54:47.900Z,86.40
2017-11-19T00:57:15.035Z,85.80
2017-11-19T00:59:41.701Z,85.70
2017-11-19T01:02:10.287Z,86.50
2017-11-19T01:04:37.266Z,86.20
2017-11-19T01:07:03.436Z,86.40
2017-11-19T01:09:30.567Z,86.40
2017-11-19T01:11:59.929Z,86.50
2017-11-19T01:14:26.718Z,85.50
2017-11-19T01:16:55.322Z,87.00
2017-11-19T01:19:22.275Z,86.30
2017-11-19T01:21:48.545Z,86.30
2017-11-19T01:24:15.105Z,86.70
2017-11-19T01:26:41.759Z,87.00
2017-11-19T01:29:09.075Z,87.80
2017-11-19T01:31:36.044Z,87.50
2017-11-19T01:34:02.261Z,87.60
2017-11-19T01:36:29.224Z,87.90
2017-11-19T01:41:23.814Z,89.30
2017-11-19T01:43:53.105Z,87.60
2017-11-19T01:46:20.077Z,88.80
2017-11-19T01:48:46.925Z,88.20
2017-11-19T01:51:13.167Z,88.50
2017-11-19T01:53:39.766Z,88.00
2017-11-19T01:56:06.695Z,89.30
2017-11-19T01:58:33.784Z,88.00
2017-11-19T02:01:00.129Z,87.90
2017-11-19T02:03:27.473Z,87.90
2017-11-19T02:05:55.368Z,87.80
2017-11-19T02:08:21.965Z,87.00
2017-11-19T02:10:48.879Z,87.80
2017-11-19T02:13:16.245Z,87.10
2017-11-19T02:15:43.210Z,87.60
2017-11-19T02:18:10.554Z,87.40
2017-11-19T02:20:37.502Z,88.30
2017-11-19T02:23:04.143Z,87.70
2017-11-19T02:25:34.343Z,87.90
2017-11-19T02:28:00.910Z,88.40
2017-11-19T02:30:27.952Z,88.70
2017-11-19T02:32:54.286Z,88.60
2017-11-19T02:35:23.424Z,89.10
2017-11-19T02:50:54.730Z,87.60
2017-11-19T02:53:22.548Z,88.50
2017-11-19T02:55:49.628Z,88.20
2017-11-19T02:58:16.558Z,89.30
2017-11-19T03:00:43.544Z,89.50
2017-11-19T03:03:12.172Z,87.30
2017-11-19T03:05:39.133Z,89.10
2017-11-19T03:08:06.092Z,90.50
2017-11-19T03:10:33.090Z,86.50
2017-11-19T03:12:59.288Z,85.70
2017-11-19T03:15:25.465Z,85.00
2017-11-19T03:17:51.719Z,84.80
2017-11-19T03:20:18.753Z,84.70
2017-11-19T03:22:44.987Z,84.50
2017-11-19T03:25:11.174Z,84.20
2017-11-19T03:27:37.361Z,86.30
2017-11-19T03:30:04.327Z,83.70
2017-11-19T03:32:30.552Z,82.00
2017-11-19T03:34:56.761Z,82.90
2017-11-19T03:37:24.029Z,82.60
2017-11-19T03:39:50.186Z,81.10
2017-11-19T03:42:17.222Z,81.00
2017-11-19T03:44:44.575Z,86.30
2017-11-19T03:47:11.788Z,82.90
2017-11-19T03:49:38.733Z,77.00
2017-11-19T03:52:04.963Z,77.30
2017-11-19T03:54:31.941Z,78.50
2017-11-19T03:56:59.056Z,78.90
2017-11-19T03:59:26.045Z,78.80
2017-11-19T04:01:56.633Z,79.20
2017-11-19T04:04:22.880Z,79.20
2017-11-19T04:06:49.801Z,80.30
2017-11-19T04:09:16.765Z,79.90
2017-11-19T04:11:43.648Z,80.40
2017-11-19T04:14:10.514Z,80.10
2017-11-19T04:16:37.316Z,80.10
2017-11-19T04:19:03.593Z,80.60
2017-11-19T04:21:30.659Z,80.80
2017-11-19T04:23:57.781Z,80.20
2017-11-19T04:26:26.360Z,79.80
2017-11-19T04:28:52.667Z,80.30
2017-11-19T04:31:18.819Z,80.80
2017-11-19T04:33:45.940Z,80.60
2017-11-19T04:36:12.863Z,80.50
2017-11-19T04:38:42.585Z,81.20
2017-11-19T04:41:11.180Z,81.60
2017-11-19T04:43:38.295Z,81.10
2017-11-19T04:46:04.483Z,81.00
2017-11-19T04:48:34.290Z,80.60
2017-11-19T04:51:03.193Z,80.80
2017-11-19T04:53:30.354Z,80.60
2017-11-19T04:55:56.555Z,81.00
2017-11-19T04:58:22.756Z,80.60
2017-11-19T05:00:50.336Z,80.00
2017-11-19T05:03:17.562Z,80.30
2017-11-19T05:05:44.476Z,81.50
2017-11-19T05:08:14.095Z,80.50
2017-11-19T05:10:41.605Z,80.10
2017-11-19T05:13:07.798Z,80.60
2017-11-19T05:15:35.317Z,80.40
2017-11-19T05:18:03.031Z,80.40
2017-11-19T05:20:31.004Z,80.90
2017-11-19T05:22:57.953Z,81.10
2017-11-19T05:25:25.890Z,81.00
2017-11-19T05:27:53.357Z,80.70
2017-11-19T05:30:22.541Z,80.70
2017-11-19T05:32:50.502Z,80.00
2017-11-19T05:35:16.789Z,80.70
2017-11-19T05:37:44.379Z,80.50
2017-11-19T05:40:11.630Z,81.10
2017-11-19T05:42:53.344Z,81.50
2017-11-19T05:45:19.700Z,81.80
2017-11-19T05:47:47.580Z,81.90
2017-11-19T05:50:13.767Z,81.50
2017-11-19T05:52:41.174Z,81.20
2017-11-19T05:55:09.495Z,81.10
2017-11-19T05:57:36.574Z,81.00
2017-11-19T06:00:02.866Z,80.90
2017-11-19T06:02:30.378Z,80.10
2017-11-19T06:14:43.452Z,79.50
2017-11-19T06:17:11.612Z,79.70
2017-11-19T06:19:38.600Z,80.10
2017-11-19T06:22:06.658Z,80.20
2017-11-19T06:24:33.570Z,80.60
2017-11-19T06:27:02.305Z,80.60
2017-11-19T06:29:29.234Z,81.40
2017-11-19T06:31:57.450Z,81.40
2017-11-19T06:34:23.641Z,80.90
2017-11-19T06:36:51.450Z,81.40
2017-11-19T06:39:18.186Z,81.10
2017-11-19T06:41:44.332Z,81.30
2017-11-19T06:44:13.064Z,81.10
2017-11-19T06:46:42.292Z,81.60
2017-11-19T06:49:09.544Z,80.60
2017-11-19T06:51:35.740Z,80.90
2017-11-19T06:54:02.689Z,80.40
2017-11-19T06:56:29.806Z,81.10
2017-11-19T06:58:56.110Z,80.60
2017-11-19T07:01:23.643Z,80.50
2017-11-19T07:03:50.995Z,80.60
2017-11-19T07:06:19.052Z,81.60
2017-11-19T07:08:46.632Z,81.00
2017-11-19T07:11:13.933Z,81.60
2017-11-19T07:13:40.157Z,81.20
2017-11-19T07:16:06.392Z,80.80
2017-11-19T07:18:37.460Z,80.80
2017-11-19T07:21:03.921Z,81.10
2017-11-19T07:23:32.756Z,81.60
2017-11-19T07:26:02.426Z,81.10
2017-11-19T07:28:29.115Z,80.30
2017-11-19T07:30:55.402Z,80.60
2017-11-19T07:33:23.943Z,80.80
2017-11-19T07:35:50.572Z,80.60
2017-11-19T07:38:18.181Z,80.80
2017-11-19T07:40:45.037Z,80.60
2017-11-19T07:43:11.233Z,80.60
2017-11-19T07:45:39.941Z,79.70
2017-11-19T07:48:09.402Z,80.30
2017-11-19T07:50:35.744Z,80.00
2017-11-19T07:53:03.533Z,78.30
2017-11-19T07:55:30.740Z,78.30
2017-11-19T07:57:56.974Z,78.00
2017-11-19T08:00:26.468Z,77.10
2017-11-19T08:02:53.473Z,77.10
2017-11-19T08:05:20.618Z,76.60
2017-11-19T08:07:48.321Z,77.80
2017-11-19T08:10:17.211Z,76.90
2017-11-19T08:12:43.387Z,77.20
2017-11-19T08:15:11.736Z,77.50
2017-11-19T08:17:39.438Z,78.50
2017-11-19T08:20:06.421Z,78.80
2017-11-19T08:22:34.093Z,77.30
2017-11-19T08:25:00.296Z,77.60
2017-11-19T08:27:27.142Z,76.50
2017-11-19T08:29:53.952Z,76.80
2017-11-19T08:32:22.660Z,77.20
2017-11-19T08:34:50.659Z,78.50
2017-11-19T08:37:20.276Z,78.60
2017-11-19T08:39:50.169Z,78.40
2017-11-19T08:42:17.221Z,77.50
2017-11-19T08:44:43.421Z,77.70
2017-11-19T08:47:11.144Z,78.20
2017-11-19T08:49:39.373Z,77.80
2017-11-19T08:52:05.603Z,77.80
2017-11-19T09:04:23.507Z,76.70
2017-11-19T09:06:52.605Z,75.10
2017-11-19T09:09:21.220Z,74.80
2017-11-19T09:11:50.047Z,74.00
2017-11-19T09:14:16.413Z,73.90
2017-11-19T09:16:43.256Z,74.50
2017-11-19T09:19:10.451Z,74.40
2017-11-19T09:21:38.377Z,73.90
2017-11-19T09:24:05.093Z,74.60
2017-11-19T09:26:33.198Z,77.30
2017-11-19T09:28:59.439Z,73.90
2017-11-19T09:31:28.964Z,76.20
2017-11-19T09:33:58.528Z,74.90
2017-11-19T09:36:26.969Z,76.00
2017-11-19T09:38:57.595Z,76.10
2017-11-19T09:41:24.543Z,74.80
2017-11-19T09:43:50.791Z,74.00
2017-11-19T09:46:17.766Z,70.50
2017-11-19T09:48:44.626Z,71.50
2017-11-19T09:51:10.826Z,72.00
2017-11-19T09:56:08.923Z,72.00
2017-11-19T09:58:43.687Z,72.30
2017-11-19T10:01:12.471Z,74.60
2017-11-19T10:03:38.647Z,72.20
2017-11-19T10:06:06.063Z,71.70
2017-11-19T10:08:32.863Z,73.20
2017-11-19T10:11:02.483Z,74.00
2017-11-19T10:13:29.556Z,72.10
2017-11-19T10:16:03.209Z,71.10
2017-11-19T10:18:30.909Z,71.10
2017-11-19T10:20:57.107Z,70.40
2017-11-19T10:23:27.090Z,71.10
2017-11-19T10:25:58.317Z,71.10
2017-11-19T10:28:26.001Z,70.40
2017-11-19T10:31:02.467Z,71.30
2017-11-19T10:33:29.507Z,70.50
2017-11-19T10:35:58.014Z,70.30
2017-11-19T10:38:28.478Z,68.70
2017-11-19T10:40:55.467Z,70.00
2017-11-19T10:43:21.644Z,69.60
2017-11-19T10:45:48.582Z,69.30
2017-11-19T10:48:16.626Z,67.40
2017-11-19T10:50:42.839Z,66.00
2017-11-19T10:53:11.302Z,66.50
2017-11-19T10:55:37.592Z,67.20
2017-11-19T10:58:04.539Z,68.80
2017-11-19T11:00:31.522Z,68.50
2017-11-19T11:02:57.709Z,67.10
2017-11-19T11:05:24.209Z,69.00
2017-11-19T11:07:50.475Z,69.10
2017-11-19T11:10:18.136Z,66.90
2017-11-19T11:12:45.358Z,65.10
2017-11-19T11:15:11.592Z,61.50
2017-11-19T11:17:37.835Z,61.90
2017-11-19T11:20:04.709Z,59.40
2017-11-19T11:22:31.670Z,60.40
2017-11-19T11:24:58.049Z,57.70
2017-11-19T11:27:24.689Z,56.00
2017-11-19T11:29:52.032Z,56.40
2017-11-19T11:32:18.290Z,57.50
2017-11-19T11:34:44.561Z,58.30
2017-11-19T11:37:10.829Z,59.60
2017-11-19T11:39:37.896Z,61.10
2017-11-19T11:42:04.125Z,60.80
2017-11-19T11:44:31.089Z,63.00
2017-11-19T11:46:57.692Z,61.30
2017-11-19T11:49:23.962Z,63.10
2017-11-19T11:51:50.899Z,61.50
2017-11-19T11:54:17.930Z,60.90
2017-11-19T11:56:45.632Z,61.60
2017-11-19T11:59:11.884Z,62.20
2017-11-19T12:01:38.965Z,63.70
2017-11-19T12:04:06.337Z,64.40
2017-11-19T12:06:33.499Z,64.50
2017-11-19T12:09:01.314Z,65.70
2017-11-19T12:11:27.545Z,65.10
2017-11-19T12:13:54.892Z,66.10
2017-11-19T12:16:21.098Z,65.90
2017-11-19T12:18:47.715Z,66.10
2017-11-19T12:21:14.708Z,67.90
2017-11-19T12:23:40.997Z,66.00
2017-11-19T12:26:07.534Z,66.50
2017-11-19T12:28:33.809Z,65.80
2017-11-19T12:31:00.776Z,66.20
2017-11-19T12:33:29.089Z,67.30
2017-11-19T12:35:56.109Z,66.50
2017-11-19T12:38:22.390Z,65.70
2017-11-19T12:40:52.278Z,65.50
2017-11-19T12:43:19.202Z,65.80
2017-11-19T12:45:47.316Z,65.30
2017-11-19T12:48:13.603Z,65.50
2017-11-19T12:50:39.849Z,65.60
2017-11-19T12:53:06.836Z,65.10
2017-11-19T12:55:33.082Z,63.50
2017-11-19T12:57:59.804Z,63.00
2017-11-19T13:00:26.224Z,62.50
2017-11-19T13:02:52.453Z,65.50
2017-11-19T13:05:22.095Z,66.70
2017-11-19T13:07:48.406Z,68.30
2017-11-19T13:10:14.605Z,69.30
2017-11-19T13:12:41.565Z,71.00
2017-11-19T13:15:08.603Z,71.80
2017-11-19T13:17:35.543Z,72.30
2017-11-19T13:20:02.222Z,71.60
2017-11-19T13:22:28.531Z,72.40
2017-11-19T13:24:56.892Z,72.20
2017-11-19T13:27:23.881Z,74.20
2017-11-19T13:29:50.489Z,74.10
2017-11-19T13:32:18.590Z,74.40
2017-11-19T13:34:46.303Z,74.10
2017-11-19T13:37:12.615Z,74.90
2017-11-19T13:39:40.043Z,75.00
2017-11-19T13:42:06.311Z,75.00
2017-11-19T13:44:32.522Z,75.50
2017-11-19T13:47:00.727Z,74.40
2017-11-19T13:49:27.325Z,74.20
2017-11-19T13:51:54.013Z,74.70
2017-11-19T13:54:21.491Z,75.30
2017-11-19T13:56:52.070Z,75.10
2017-11-19T13:59:18.727Z,75.50
2017-11-19T14:01:44.972Z,76.30
2017-11-19T14:04:12.199Z,77.10
2017-11-19T14:06:38.902Z,77.10
2017-11-19T14:09:07.947Z,77.50
2017-11-19T14:11:34.953Z,77.70
2017-11-19T14:14:01.136Z,78.10
2017-11-19T14:16:28.092Z,78.40
2017-11-19T14:18:58.558Z,78.50
2017-11-19T14:21:25.345Z,78.40
2017-11-19T14:23:52.441Z,77.80
2017-11-19T14:26:18.747Z,77.90
2017-11-19T14:28:47.010Z,77.00
2017-11-19T14:31:15.801Z,77.50
2017-11-19T14:33:42.728Z,77.50
2017-11-19T14:36:09.840Z,76.30
2017-11-19T14:38:36.183Z,76.00
2017-11-19T14:41:04.232Z,75.80
2017-11-19T14:43:30.568Z,75.80
2017-11-19T14:45:57.523Z,75.10
2017-11-19T14:48:23.774Z,75.60
2017-11-19T14:50:50.085Z,75.30
2017-11-19T14:53:16.352Z,75.70
2017-11-19T14:55:44.296Z,75.30
2017-11-19T14:58:11.899Z,75.70
2017-11-19T15:00:38.871Z,76.30
2017-11-19T15:03:05.119Z,76.30
2017-11-19T15:05:31.578Z,76.30
2017-11-19T15:07:58.206Z,75.90
2017-11-19T15:10:24.630Z,76.20
2017-11-19T15:12:51.228Z,76.10
2017-11-19T15:15:18.863Z,76.30
2017-11-19T15:17:48.972Z,76.50
2017-11-19T15:20:16.016Z,76.20
2017-11-19T15:22:42.361Z,76.10
2017-11-19T15:25:09.933Z,76.00
2017-11-19T15:27:37.022Z,76.00
2017-11-19T15:30:04.085Z,75.80
2017-11-19T15:32:43.137Z,75.70
2017-11-19T15:35:09.570Z,75.00
2017-11-19T15:47:21.513Z,74.80
2017-11-19T15:49:47.956Z,74.50
2017-11-19T15:52:14.660Z,74.80
2017-11-19T15:54:43.068Z,74.60
2017-11-19T15:57:09.860Z,74.50
2017-11-19T15:59:36.857Z,75.10
2017-11-19T16:02:03.330Z,74.60
2017-11-19T16:04:31.982Z,75.30
2017-11-19T16:07:00.665Z,75.30
2017-11-19T16:09:28.182Z,75.30
2017-11-19T16:11:55.067Z,74.80
2017-11-19T16:14:21.934Z,75.30
2017-11-19T16:16:48.582Z,76.90
2017-11-19T16:19:15.765Z,78.70
2017-11-19T16:34:43.122Z,72.70
2017-11-19T16:37:10.199Z,71.90
2017-11-19T16:39:36.590Z,74.10
2017-11-19T16:42:04.992Z,73.90
2017-11-19T16:44:31.362Z,73.90
2017-11-19T16:46:57.722Z,74.00
2017-11-19T16:49:25.215Z,73.80
2017-11-19T16:51:51.552Z,73.70
2017-11-19T16:54:18.543Z,74.10
2017-11-19T16:56:49.095Z,74.10
2017-11-19T16:59:16.728Z,74.40
2017-11-19T17:01:44.714Z,73.80
2017-11-19T17:04:11.745Z,75.00
2017-11-19T17:06:38.098Z,74.00
2017-11-19T17:09:06.920Z,74.30
2017-11-19T17:11:34.096Z,74.60
2017-11-19T17:14:00.404Z,77.40
2017-11-19T17:16:31.851Z,75.00
2017-11-19T17:18:58.948Z,75.30
2017-11-19T17:31:11.238Z,74.30
2017-11-19T17:33:39.172Z,74.20
2017-11-19T17:39:12.430Z,73.60
2017-11-19T17:41:39.074Z,73.70
2017-11-19T17:44:06.107Z,74.20
2017-11-19T17:49:01.369Z,76.80
2017-11-19T17:51:27.670Z,76.10
2017-11-19T17:53:54.832Z,76.00
2017-11-19T17:56:22.293Z,75.80
2017-11-19T17:58:49.224Z,79.80
2017-11-19T18:01:17.922Z,74.50
2017-11-19T18:03:44.199Z,75.50
2017-11-19T18:06:11.272Z,74.80
2017-11-19T18:08:37.731Z,74.50
2017-11-19T18:11:04.925Z,74.10
2017-11-19T18:13:32.134Z,77.20
2017-11-19T18:15:59.259Z,74.50
2017-11-19T18:18:25.889Z,74.00
2017-11-19T18:20:53.011Z,73.90
2017-11-19T18:23:19.390Z,74.40
2017-11-19T18:25:46.484Z,75.50
2017-11-19T18:28:13.195Z,74.90
2017-11-19T18:30:39.502Z,75.80
2017-11-19T18:33:05.967Z,76.10
2017-11-19T18:35:32.861Z,76.40
2017-11-19T18:37:59.915Z,76.80
2017-11-19T18:42:57.573Z,77.40
2017-11-19T18:45:23.972Z,78.80
2017-11-19T18:47:51.709Z,78.90
2017-11-19T18:50:18.465Z,79.40
2017-11-19T18:52:45.718Z,79.30
2017-11-19T18:55:12.075Z,79.80
2017-11-19T18:57:39.222Z,80.30
2017-11-19T19:00:06.142Z,79.40
2017-11-19T19:02:33.467Z,79.70
2017-11-19T19:05:01.568Z,80.50
2017-11-19T19:07:28.233Z,81.40
2017-11-19T19:09:55.911Z,81.50
2017-11-19T19:12:22.688Z,82.00
2017-11-19T19:14:49.015Z,82.30
2017-11-19T19:17:16.544Z,81.60
2017-11-19T19:19:42.782Z,81.60
2017-11-19T19:22:09.037Z,81.30
2017-11-19T19:24:38.145Z,81.40
2017-11-19T19:27:04.773Z,81.30
2017-11-19T19:29:31.741Z,82.10
2017-11-19T19:31:59.230Z,82.30
2017-11-19T19:34:25.595Z,82.90
2017-11-19T19:36:51.804Z,82.80
2017-11-19T19:39:18.077Z,83.30
2017-11-19T19:41:46.451Z,84.00
2017-11-19T19:44:13.762Z,84.30
2017-11-19T19:46:40.849Z,84.80
2017-11-19T19:49:07.854Z,84.60
2017-11-19T19:51:34.421Z,85.10
2017-11-19T19:54:00.981Z,85.10
2017-11-19T19:56:28.511Z,85.80
2017-11-19T19:58:56.268Z,84.80
2017-11-19T20:01:22.632Z,84.10
2017-11-19T20:03:49.565Z,84.00
2017-11-19T20:06:15.897Z,84.40
2017-11-19T20:11:17.199Z,83.70
2017-11-19T20:13:43.498Z,84.00
2017-11-19T20:16:10.132Z,83.50
2017-11-19T20:18:36.405Z,83.20
2017-11-19T20:21:03.502Z,83.20
2017-11-19T20:23:29.900Z,83.00
2017-11-19T20:25:56.323Z,82.80
2017-11-19T20:28:23.509Z,83.10
2017-11-19T20:30:49.839Z,83.40
2017-11-19T20:43:01.321Z,81.50
2017-11-19T20:45:28.040Z,81.50
2017-11-19T20:47:55.765Z,82.20
2017-11-19T20:50:22.131Z,82.00
2017-11-19T20:52:48.897Z,81.30
2017-11-19T20:55:17.670Z,81.60
2017-11-19T20:57:45.581Z,81.70
2017-11-19T21:00:13.080Z,82.90
2017-11-19T21:02:41.801Z,82.00
2017-11-19T21:05:08.545Z,81.60
2017-11-19T21:07:35.353Z,82.30
2017-11-19T21:10:01.607Z,82.10
2017-11-19T21:12:28.408Z,82.30
2017-11-19T21:14:55.064Z,82.30
2017-11-19T21:17:21.779Z,82.80
2017-11-19T21:19:49.913Z,82.60
2017-11-19T21:22:16.278Z,82.80
2017-11-19T21:24:42.592Z,82.70
2017-11-19T21:27:11.759Z,82.90
2017-11-19T21:29:39.011Z,83.60
2017-11-19T21:32:05.211Z,83.50
2017-11-19T21:34:31.456Z,83.80
2017-11-19T21:36:57.719Z,84.30
2017-11-19T21:39:25.312Z,84.00
2017-11-19T21:41:51.836Z,84.30
2017-11-19T21:44:18.811Z,83.80
2017-11-19T21:46:46.207Z,83.70
2017-11-19T21:49:12.538Z,84.40
2017-11-19T21:51:38.783Z,84.60
2017-11-19T21:54:05.051Z,84.50
2017-11-19T21:56:31.651Z,84.00
2017-11-19T21:58:58.388Z,84.30
2017-11-19T22:01:24.625Z,84.70
2017-11-19T22:13:35.870Z,84.40
2017-11-19T22:16:02.529Z,84.10
2017-11-19T22:18:30.868Z,83.80
2017-11-19T22:20:57.100Z,84.50
2017-11-19T22:23:24.161Z,84.50
2017-11-19T22:25:50.406Z,84.50
2017-11-19T22:28:17.540Z,84.30
2017-11-19T22:30:43.793Z,84.30
2017-11-19T22:33:10.428Z,84.30
2017-11-19T22:35:36.697Z,85.00
2017-11-19T22:38:02.909Z,84.80
2017-11-19T22:40:29.864Z,85.00
2017-11-19T22:42:57.045Z,84.60
2017-11-19T22:45:23.761Z,84.40
2017-11-19T22:47:50.386Z,84.20
2017-11-19T22:50:17.332Z,85.00
2017-11-19T22:52:44.412Z,84.60
2017-11-19T22:55:11.830Z,84.40
2017-11-19T22:57:38.773Z,85.10
2017-11-19T23:00:06.601Z,85.10
2017-11-19T23:02:33.256Z,84.50
2017-11-19T23:04:59.452Z,85.40
2017-11-19T23:07:26.341Z,86.20
2017-11-19T23:09:53.331Z,85.20
2017-11-19T23:12:19.992Z,85.10
2017-11-19T23:14:46.199Z,85.60
2017-11-19T23:17:12.492Z,86.40
2017-11-19T23:19:38.693Z,85.10
2017-11-19T23:22:04.923Z,84.80
2017-11-19T23:24:31.983Z,84.00
2017-11-19T23:26:58.577Z,83.60
2017-11-19T23:29:24.800Z,84.40
2017-11-19T23:31:51.750Z,84.40
2017-11-19T23:34:18.309Z,84.80
2017-11-19T23:36:44.526Z,84.60
2017-11-19T23:39:10.733Z,84.80
2017-11-19T23:41:36.968Z,85.10
2017-11-19T23:44:03.164Z,85.00
2017-11-19T23:46:29.371Z,85.00
2017-11-19T23:48:55.904Z,85.30
2017-11-19T23:51:22.521Z,84.60
2017-11-19T23:53:48.720Z,85.20
2017-11-19T23:56:14.911Z,85.00
2017-11-19T23:58:41.521Z,84.60
